sensor_id;sensor_type;location;lat;lon;timestamp;temperature;humidity
26278;DHT22;14000;52.056;8.510;2022-10-16T00:00:31;14.20;99.90
26278;DHT22;14000;52.056;8.510;2022-10-16T00:03:00;14.30;99.90
26278;DHT22;14000;52.056;8.510;2022-10-16T00:05:26;14.20;99.90
26278;DHT22;14000;52.056;8.510;2022-10-16T00:07:51;14.30;99.90
26278;DHT22;14000;52.056;8.510;2022-10-16T00:10:17;14.30;99.90
26278;DHT22;14000;52.056;8.510;2022-10-16T00:12:42;14.20;99.90
26278;DHT22;14000;52.056;8.510;2022-10-16T00:15:08;14.10;99.90
26278;DHT22;14000;52.056;8.510;2022-10-16T00:17:34;14.20;99.90
26278;DHT22;14000;52.056;8.510;2022-10-16T00:19:59;14.10;99.90
26278;DHT22;14000;52.056;8.510;2022-10-16T00:22:25;14.20;99.90
26278;DHT22;14000;52.056;8.510;2022-10-16T00:24:51;14.10;99.90
26278;DHT22;14000;52.056;8.510;2022-10-16T00:27:16;14.10;99.90
26278;DHT22;14000;52.056;8.510;2022-10-16T00:29:42;14.10;99.90
26278;DHT22;14000;52.056;8.510;2022-10-16T00:32:08;14.10;99.90
26278;DHT22;14000;52.056;8.510;2022-10-16T00:34:34;14.20;99.90
26278;DHT22;14000;52.056;8.510;2022-10-16T00:37:00;14.10;99.90
26278;DHT22;14000;52.056;8.510;2022-10-16T00:39:26;14.10;99.90
26278;DHT22;14000;52.056;8.510;2022-10-16T00:41:51;14.00;99.90
26278;DHT22;14000;52.056;8.510;2022-10-16T00:49:50;14.00;99.90
26278;DHT22;14000;52.056;8.510;2022-10-16T00:52:17;13.90;99.90
26278;DHT22;14000;52.056;8.510;2022-10-16T00:54:43;13.90;99.90
26278;DHT22;14000;52.056;8.510;2022-10-16T00:57:10;13.90;99.90
26278;DHT22;14000;52.056;8.510;2022-10-16T00:59:41;13.90;99.90
26278;DHT22;14000;52.056;8.510;2022-10-16T01:02:10;13.80;99.90
26278;DHT22;14000;52.056;8.510;2022-10-16T01:04:48;13.70;99.90
26278;DHT22;14000;52.056;8.510;2022-10-16T01:07:44;13.70;99.90
26278;DHT22;14000;52.056;8.510;2022-10-16T01:13:32;13.70;99.90
26278;DHT22;14000;52.056;8.510;2022-10-16T01:16:12;13.60;99.90
26278;DHT22;14000;52.056;8.510;2022-10-16T01:19:05;13.60;99.90
26278;DHT22;14000;52.056;8.510;2022-10-16T01:21:45;13.60;99.90
26278;DHT22;14000;52.056;8.510;2022-10-16T01:24:23;13.60;99.90
26278;DHT22;14000;52.056;8.510;2022-10-16T01:29:53;13.60;99.90
26278;DHT22;14000;52.056;8.510;2022-10-16T01:37:53;13.60;99.90
26278;DHT22;14000;52.056;8.510;2022-10-16T01:40:21;13.50;99.90
26278;DHT22;14000;52.056;8.510;2022-10-16T01:42:53;13.60;99.90
26278;DHT22;14000;52.056;8.510;2022-10-16T01:45:21;13.70;99.90
26278;DHT22;14000;52.056;8.510;2022-10-16T01:47:48;13.60;99.90
26278;DHT22;14000;52.056;8.510;2022-10-16T01:50:16;13.60;99.90
26278;DHT22;14000;52.056;8.510;2022-10-16T01:52:46;13.60;99.90
26278;DHT22;14000;52.056;8.510;2022-10-16T01:55:14;13.60;99.90
26278;DHT22;14000;52.056;8.510;2022-10-16T01:57:43;13.70;99.90
26278;DHT22;14000;52.056;8.510;2022-10-16T02:00:12;13.70;99.90
26278;DHT22;14000;52.056;8.510;2022-10-16T02:02:41;13.60;99.90
26278;DHT22;14000;52.056;8.510;2022-10-16T02:05:30;13.70;99.90
26278;DHT22;14000;52.056;8.510;2022-10-16T02:07:57;13.70;99.90
26278;DHT22;14000;52.056;8.510;2022-10-16T02:10:24;13.70;99.90
26278;DHT22;14000;52.056;8.510;2022-10-16T02:15:37;13.70;99.90
26278;DHT22;14000;52.056;8.510;2022-10-16T02:18:05;13.60;99.90
26278;DHT22;14000;52.056;8.510;2022-10-16T02:20:36;13.50;99.90
26278;DHT22;14000;52.056;8.510;2022-10-16T02:23:12;13.40;99.90
26278;DHT22;14000;52.056;8.510;2022-10-16T02:25:44;13.40;99.90
26278;DHT22;14000;52.056;8.510;2022-10-16T02:28:27;13.30;99.90
26278;DHT22;14000;52.056;8.510;2022-10-16T02:31:03;13.20;99.90
26278;DHT22;14000;52.056;8.510;2022-10-16T02:33:30;13.20;99.90
26278;DHT22;14000;52.056;8.510;2022-10-16T02:35:57;13.30;99.90
26278;DHT22;14000;52.056;8.510;2022-10-16T02:38:24;13.20;99.90
26278;DHT22;14000;52.056;8.510;2022-10-16T02:40:53;13.10;99.90
26278;DHT22;14000;52.056;8.510;2022-10-16T02:43:20;13.20;99.90
26278;DHT22;14000;52.056;8.510;2022-10-16T02:45:46;13.20;99.90
26278;DHT22;14000;52.056;8.510;2022-10-16T02:48:12;13.30;99.90
26278;DHT22;14000;52.056;8.510;2022-10-16T02:50:38;13.80;99.90
26278;DHT22;14000;52.056;8.510;2022-10-16T02:53:05;13.30;99.90
26278;DHT22;14000;52.056;8.510;2022-10-16T02:55:31;13.40;99.90
26278;DHT22;14000;52.056;8.510;2022-10-16T02:57:58;13.40;99.90
26278;DHT22;14000;52.056;8.510;2022-10-16T03:00:24;13.40;99.90
26278;DHT22;14000;52.056;8.510;2022-10-16T03:02:50;13.40;99.90
26278;DHT22;14000;52.056;8.510;2022-10-16T03:05:17;13.40;99.90
26278;DHT22;14000;52.056;8.510;2022-10-16T03:07:43;13.50;99.90
26278;DHT22;14000;52.056;8.510;2022-10-16T03:10:09;13.50;99.90
26278;DHT22;14000;52.056;8.510;2022-10-16T03:12:36;13.50;99.90
26278;DHT22;14000;52.056;8.510;2022-10-16T03:15:03;13.50;99.90
26278;DHT22;14000;52.056;8.510;2022-10-16T03:17:29;13.40;99.90
26278;DHT22;14000;52.056;8.510;2022-10-16T03:19:55;13.40;99.90
26278;DHT22;14000;52.056;8.510;2022-10-16T03:22:22;13.40;99.90
26278;DHT22;14000;52.056;8.510;2022-10-16T03:24:50;13.40;99.90
26278;DHT22;14000;52.056;8.510;2022-10-16T03:27:17;13.30;99.90
26278;DHT22;14000;52.056;8.510;2022-10-16T03:29:43;13.30;99.90
26278;DHT22;14000;52.056;8.510;2022-10-16T03:32:09;13.30;99.90
26278;DHT22;14000;52.056;8.510;2022-10-16T03:34:35;13.40;99.90
26278;DHT22;14000;52.056;8.510;2022-10-16T03:37:01;13.40;99.90
26278;DHT22;14000;52.056;8.510;2022-10-16T03:39:27;13.40;99.90
26278;DHT22;14000;52.056;8.510;2022-10-16T03:41:53;14.00;99.90
26278;DHT22;14000;52.056;8.510;2022-10-16T03:44:20;13.40;99.90
26278;DHT22;14000;52.056;8.510;2022-10-16T03:46:46;13.40;99.90
26278;DHT22;14000;52.056;8.510;2022-10-16T03:49:15;13.50;99.90
26278;DHT22;14000;52.056;8.510;2022-10-16T03:51:41;13.40;99.90
26278;DHT22;14000;52.056;8.510;2022-10-16T03:54:13;13.40;99.90
26278;DHT22;14000;52.056;8.510;2022-10-16T03:56:39;13.40;99.90
26278;DHT22;14000;52.056;8.510;2022-10-16T03:59:05;13.50;99.90
26278;DHT22;14000;52.056;8.510;2022-10-16T04:01:31;13.50;99.90
26278;DHT22;14000;52.056;8.510;2022-10-16T04:03:57;13.40;99.90
26278;DHT22;14000;52.056;8.510;2022-10-16T04:06:23;13.40;99.90
26278;DHT22;14000;52.056;8.510;2022-10-16T04:08:50;13.50;99.90
26278;DHT22;14000;52.056;8.510;2022-10-16T04:11:16;13.50;99.90
26278;DHT22;14000;52.056;8.510;2022-10-16T04:13:42;13.50;99.90
26278;DHT22;14000;52.056;8.510;2022-10-16T04:16:09;13.60;99.90
26278;DHT22;14000;52.056;8.510;2022-10-16T04:18:35;13.50;99.90
26278;DHT22;14000;52.056;8.510;2022-10-16T04:21:05;14.20;99.90
26278;DHT22;14000;52.056;8.510;2022-10-16T04:23:32;13.40;99.90
26278;DHT22;14000;52.056;8.510;2022-10-16T04:25:59;13.50;99.90
26278;DHT22;14000;52.056;8.510;2022-10-16T04:28:26;13.50;99.90
26278;DHT22;14000;52.056;8.510;2022-10-16T04:30:55;13.40;99.90
26278;DHT22;14000;52.056;8.510;2022-10-16T04:33:21;13.50;99.90
26278;DHT22;14000;52.056;8.510;2022-10-16T04:35:47;13.50;99.90
26278;DHT22;14000;52.056;8.510;2022-10-16T04:38:13;13.60;99.90
26278;DHT22;14000;52.056;8.510;2022-10-16T04:40:42;13.60;99.90
26278;DHT22;14000;52.056;8.510;2022-10-16T04:43:07;13.60;99.90
26278;DHT22;14000;52.056;8.510;2022-10-16T04:45:33;13.70;99.90
26278;DHT22;14000;52.056;8.510;2022-10-16T04:47:59;13.60;99.90
26278;DHT22;14000;52.056;8.510;2022-10-16T04:50:25;13.60;99.90
26278;DHT22;14000;52.056;8.510;2022-10-16T04:52:51;13.70;99.90
26278;DHT22;14000;52.056;8.510;2022-10-16T04:55:16;13.70;99.90
26278;DHT22;14000;52.056;8.510;2022-10-16T04:57:42;13.80;99.90
26278;DHT22;14000;52.056;8.510;2022-10-16T05:00:08;13.80;99.90
26278;DHT22;14000;52.056;8.510;2022-10-16T05:02:35;13.80;99.90
26278;DHT22;14000;52.056;8.510;2022-10-16T05:05:00;13.70;99.90
26278;DHT22;14000;52.056;8.510;2022-10-16T05:07:26;13.70;99.90
26278;DHT22;14000;52.056;8.510;2022-10-16T05:09:51;13.80;99.90
26278;DHT22;14000;52.056;8.510;2022-10-16T05:12:17;13.80;99.90
26278;DHT22;14000;52.056;8.510;2022-10-16T05:14:43;13.90;99.90
26278;DHT22;14000;52.056;8.510;2022-10-16T05:17:08;13.80;99.90
26278;DHT22;14000;52.056;8.510;2022-10-16T05:19:34;13.80;99.90
26278;DHT22;14000;52.056;8.510;2022-10-16T05:22:00;13.70;99.90
26278;DHT22;14000;52.056;8.510;2022-10-16T05:24:26;13.80;99.90
26278;DHT22;14000;52.056;8.510;2022-10-16T05:26:51;13.80;99.90
26278;DHT22;14000;52.056;8.510;2022-10-16T05:29:17;13.90;99.90
26278;DHT22;14000;52.056;8.510;2022-10-16T05:31:43;13.80;99.90
26278;DHT22;14000;52.056;8.510;2022-10-16T05:34:08;13.90;99.90
26278;DHT22;14000;52.056;8.510;2022-10-16T05:36:34;13.80;99.90
26278;DHT22;14000;52.056;8.510;2022-10-16T05:39:00;13.80;99.90
26278;DHT22;14000;52.056;8.510;2022-10-16T05:41:25;13.90;99.90
26278;DHT22;14000;52.056;8.510;2022-10-16T05:43:52;13.90;99.90
26278;DHT22;14000;52.056;8.510;2022-10-16T05:46:18;13.90;99.90
26278;DHT22;14000;52.056;8.510;2022-10-16T05:48:44;13.90;99.90
26278;DHT22;14000;52.056;8.510;2022-10-16T05:51:12;13.90;99.90
26278;DHT22;14000;52.056;8.510;2022-10-16T05:53:38;13.80;99.90
26278;DHT22;14000;52.056;8.510;2022-10-16T05:56:05;13.80;99.90
26278;DHT22;14000;52.056;8.510;2022-10-16T05:58:34;13.80;99.90
26278;DHT22;14000;52.056;8.510;2022-10-16T06:01:15;13.90;99.90
26278;DHT22;14000;52.056;8.510;2022-10-16T06:03:42;13.90;99.90
26278;DHT22;14000;52.056;8.510;2022-10-16T06:06:09;13.80;99.90
26278;DHT22;14000;52.056;8.510;2022-10-16T06:08:35;13.90;99.90
26278;DHT22;14000;52.056;8.510;2022-10-16T06:11:03;13.80;99.90
26278;DHT22;14000;52.056;8.510;2022-10-16T06:13:28;13.90;99.90
26278;DHT22;14000;52.056;8.510;2022-10-16T06:15:57;13.80;99.90
26278;DHT22;14000;52.056;8.510;2022-10-16T06:18:24;13.90;99.90
26278;DHT22;14000;52.056;8.510;2022-10-16T06:20:49;13.90;99.90
26278;DHT22;14000;52.056;8.510;2022-10-16T06:23:15;14.00;99.90
26278;DHT22;14000;52.056;8.510;2022-10-16T06:25:40;14.00;99.90
26278;DHT22;14000;52.056;8.510;2022-10-16T06:28:06;14.00;99.90
26278;DHT22;14000;52.056;8.510;2022-10-16T06:30:31;14.00;99.90
26278;DHT22;14000;52.056;8.510;2022-10-16T06:32:57;14.00;99.90
26278;DHT22;14000;52.056;8.510;2022-10-16T06:35:22;14.20;99.90
26278;DHT22;14000;52.056;8.510;2022-10-16T06:37:49;14.00;99.90
26278;DHT22;14000;52.056;8.510;2022-10-16T06:40:14;14.20;99.90
26278;DHT22;14000;52.056;8.510;2022-10-16T06:42:41;14.20;99.90
26278;DHT22;14000;52.056;8.510;2022-10-16T06:45:07;14.20;99.90
26278;DHT22;14000;52.056;8.510;2022-10-16T06:47:32;14.40;99.90
26278;DHT22;14000;52.056;8.510;2022-10-16T06:49:58;14.30;99.90
26278;DHT22;14000;52.056;8.510;2022-10-16T06:52:24;14.20;99.90
26278;DHT22;14000;52.056;8.510;2022-10-16T06:54:50;14.20;99.90
26278;DHT22;14000;52.056;8.510;2022-10-16T06:57:16;14.10;99.90
26278;DHT22;14000;52.056;8.510;2022-10-16T06:59:41;14.20;99.90
26278;DHT22;14000;52.056;8.510;2022-10-16T07:02:08;14.20;99.90
26278;DHT22;14000;52.056;8.510;2022-10-16T07:04:35;14.20;99.90
26278;DHT22;14000;52.056;8.510;2022-10-16T07:07:01;14.20;99.90
26278;DHT22;14000;52.056;8.510;2022-10-16T07:09:27;14.30;99.90
26278;DHT22;14000;52.056;8.510;2022-10-16T07:11:52;14.20;99.90
26278;DHT22;14000;52.056;8.510;2022-10-16T07:14:20;14.40;99.90
26278;DHT22;14000;52.056;8.510;2022-10-16T07:16:49;14.40;99.90
26278;DHT22;14000;52.056;8.510;2022-10-16T07:19:15;14.40;99.90
26278;DHT22;14000;52.056;8.510;2022-10-16T07:21:43;14.40;99.90
26278;DHT22;14000;52.056;8.510;2022-10-16T07:24:14;14.40;99.90
26278;DHT22;14000;52.056;8.510;2022-10-16T07:26:44;14.50;99.90
26278;DHT22;14000;52.056;8.510;2022-10-16T07:29:28;14.50;99.90
26278;DHT22;14000;52.056;8.510;2022-10-16T07:31:53;14.90;99.90
26278;DHT22;14000;52.056;8.510;2022-10-16T07:34:19;14.70;99.90
26278;DHT22;14000;52.056;8.510;2022-10-16T07:36:50;14.80;99.90
26278;DHT22;14000;52.056;8.510;2022-10-16T07:39:16;16.00;99.90
26278;DHT22;14000;52.056;8.510;2022-10-16T07:41:42;14.80;99.90
26278;DHT22;14000;52.056;8.510;2022-10-16T07:44:08;14.90;99.90
26278;DHT22;14000;52.056;8.510;2022-10-16T07:46:34;14.80;99.90
26278;DHT22;14000;52.056;8.510;2022-10-16T07:49:02;14.80;99.90
26278;DHT22;14000;52.056;8.510;2022-10-16T07:51:27;14.80;99.90
26278;DHT22;14000;52.056;8.510;2022-10-16T07:53:53;14.80;99.90
26278;DHT22;14000;52.056;8.510;2022-10-16T07:56:20;14.80;99.90
26278;DHT22;14000;52.056;8.510;2022-10-16T07:58:46;14.70;99.90
26278;DHT22;14000;52.056;8.510;2022-10-16T08:01:14;14.70;99.90
26278;DHT22;14000;52.056;8.510;2022-10-16T08:03:47;14.60;99.90
26278;DHT22;14000;52.056;8.510;2022-10-16T08:06:13;14.70;99.90
26278;DHT22;14000;52.056;8.510;2022-10-16T08:08:39;14.80;99.90
26278;DHT22;14000;52.056;8.510;2022-10-16T08:11:05;14.80;99.90
26278;DHT22;14000;52.056;8.510;2022-10-16T08:13:31;14.90;99.90
26278;DHT22;14000;52.056;8.510;2022-10-16T08:15:57;15.00;99.90
26278;DHT22;14000;52.056;8.510;2022-10-16T08:18:23;14.90;99.90
26278;DHT22;14000;52.056;8.510;2022-10-16T08:20:58;15.00;99.90
26278;DHT22;14000;52.056;8.510;2022-10-16T08:23:24;14.90;99.90
26278;DHT22;14000;52.056;8.510;2022-10-16T08:25:52;15.10;99.90
26278;DHT22;14000;52.056;8.510;2022-10-16T08:28:18;15.10;99.90
26278;DHT22;14000;52.056;8.510;2022-10-16T08:30:44;15.10;99.90
26278;DHT22;14000;52.056;8.510;2022-10-16T08:33:10;15.20;99.90
26278;DHT22;14000;52.056;8.510;2022-10-16T08:35:36;15.20;99.90
26278;DHT22;14000;52.056;8.510;2022-10-16T08:38:05;15.30;99.90
26278;DHT22;14000;52.056;8.510;2022-10-16T08:40:33;15.30;99.90
26278;DHT22;14000;52.056;8.510;2022-10-16T08:48:57;15.40;99.90
26278;DHT22;14000;52.056;8.510;2022-10-16T08:51:32;15.40;99.90
26278;DHT22;14000;52.056;8.510;2022-10-16T08:54:34;15.40;99.90
26278;DHT22;14000;52.056;8.510;2022-10-16T08:57:22;15.50;99.90
26278;DHT22;14000;52.056;8.510;2022-10-16T08:59:49;15.50;99.90
26278;DHT22;14000;52.056;8.510;2022-10-16T09:02:27;15.60;99.90
26278;DHT22;14000;52.056;8.510;2022-10-16T09:13:55;15.80;99.90
26278;DHT22;14000;52.056;8.510;2022-10-16T09:16:42;15.90;99.90
26278;DHT22;14000;52.056;8.510;2022-10-16T09:19:44;16.00;99.90
26278;DHT22;14000;52.056;8.510;2022-10-16T09:22:15;16.10;99.90
26278;DHT22;14000;52.056;8.510;2022-10-16T09:24:41;16.10;99.90
26278;DHT22;14000;52.056;8.510;2022-10-16T09:27:15;16.20;99.90
26278;DHT22;14000;52.056;8.510;2022-10-16T09:29:41;16.40;99.90
26278;DHT22;14000;52.056;8.510;2022-10-16T09:32:13;16.40;99.90
26278;DHT22;14000;52.056;8.510;2022-10-16T09:34:55;16.50;99.90
26278;DHT22;14000;52.056;8.510;2022-10-16T09:37:24;16.40;99.90
26278;DHT22;14000;52.056;8.510;2022-10-16T09:39:54;16.40;99.90
26278;DHT22;14000;52.056;8.510;2022-10-16T09:42:22;16.40;99.90
26278;DHT22;14000;52.056;8.510;2022-10-16T09:44:51;16.40;99.90
26278;DHT22;14000;52.056;8.510;2022-10-16T09:47:25;16.40;99.90
26278;DHT22;14000;52.056;8.510;2022-10-16T09:49:58;16.50;99.90
26278;DHT22;14000;52.056;8.510;2022-10-16T09:52:28;16.50;99.90
26278;DHT22;14000;52.056;8.510;2022-10-16T09:54:59;16.40;99.90
26278;DHT22;14000;52.056;8.510;2022-10-16T09:57:26;16.50;99.90
26278;DHT22;14000;52.056;8.510;2022-10-16T09:59:56;16.50;99.90
26278;DHT22;14000;52.056;8.510;2022-10-16T10:02:34;16.60;99.90
26278;DHT22;14000;52.056;8.510;2022-10-16T10:05:01;16.70;99.90
26278;DHT22;14000;52.056;8.510;2022-10-16T10:07:37;16.80;99.90
26278;DHT22;14000;52.056;8.510;2022-10-16T10:10:05;16.80;99.90
26278;DHT22;14000;52.056;8.510;2022-10-16T10:12:32;16.80;99.90
26278;DHT22;14000;52.056;8.510;2022-10-16T10:15:18;16.90;99.90
26278;DHT22;14000;52.056;8.510;2022-10-16T10:17:57;17.10;99.90
26278;DHT22;14000;52.056;8.510;2022-10-16T10:20:31;17.20;99.90
26278;DHT22;14000;52.056;8.510;2022-10-16T10:23:13;17.30;99.90
26278;DHT22;14000;52.056;8.510;2022-10-16T10:33:47;17.40;99.90
26278;DHT22;14000;52.056;8.510;2022-10-16T10:36:42;17.40;99.90
26278;DHT22;14000;52.056;8.510;2022-10-16T10:39:38;17.30;99.90
26278;DHT22;14000;52.056;8.510;2022-10-16T10:42:12;17.20;99.90
26278;DHT22;14000;52.056;8.510;2022-10-16T10:44:58;17.30;99.90
26278;DHT22;14000;52.056;8.510;2022-10-16T10:50:38;17.40;99.90
26278;DHT22;14000;52.056;8.510;2022-10-16T11:01:49;17.80;99.90
26278;DHT22;14000;52.056;8.510;2022-10-16T11:07:20;17.90;99.90
26278;DHT22;14000;52.056;8.510;2022-10-16T11:12:40;17.80;99.90
26278;DHT22;14000;52.056;8.510;2022-10-16T11:15:35;17.90;99.90
26278;DHT22;14000;52.056;8.510;2022-10-16T11:18:22;18.00;99.90
26278;DHT22;14000;52.056;8.510;2022-10-16T11:21:16;18.70;99.90
26278;DHT22;14000;52.056;8.510;2022-10-16T11:23:51;19.10;99.90
26278;DHT22;14000;52.056;8.510;2022-10-16T11:26:21;19.10;99.90
26278;DHT22;14000;52.056;8.510;2022-10-16T11:28:50;19.50;99.90
26278;DHT22;14000;52.056;8.510;2022-10-16T11:34:01;22.40;99.90
26278;DHT22;14000;52.056;8.510;2022-10-16T11:36:33;23.30;99.90
26278;DHT22;14000;52.056;8.510;2022-10-16T11:39:09;24.00;99.90
26278;DHT22;14000;52.056;8.510;2022-10-16T11:42:32;23.90;99.90
26278;DHT22;14000;52.056;8.510;2022-10-16T11:47:45;21.20;99.90
26278;DHT22;14000;52.056;8.510;2022-10-16T11:52:53;20.00;99.90
26278;DHT22;14000;52.056;8.510;2022-10-16T11:55:24;19.70;99.90
26278;DHT22;14000;52.056;8.510;2022-10-16T12:03:59;19.30;99.90
26278;DHT22;14000;52.056;8.510;2022-10-16T12:06:43;19.20;99.90
26278;DHT22;14000;52.056;8.510;2022-10-16T12:09:36;19.10;99.90
26278;DHT22;14000;52.056;8.510;2022-10-16T12:12:01;18.90;99.90
26278;DHT22;14000;52.056;8.510;2022-10-16T12:17:22;19.00;99.90
26278;DHT22;14000;52.056;8.510;2022-10-16T12:20:00;19.20;99.90
26278;DHT22;14000;52.056;8.510;2022-10-16T12:22:29;19.30;99.90
26278;DHT22;14000;52.056;8.510;2022-10-16T12:24:55;19.40;99.90
26278;DHT22;14000;52.056;8.510;2022-10-16T12:27:28;19.30;99.90
26278;DHT22;14000;52.056;8.510;2022-10-16T12:30:03;19.50;99.90
26278;DHT22;14000;52.056;8.510;2022-10-16T12:32:39;19.60;99.90
26278;DHT22;14000;52.056;8.510;2022-10-16T12:35:17;19.70;99.90
26278;DHT22;14000;52.056;8.510;2022-10-16T12:37:45;19.80;99.90
26278;DHT22;14000;52.056;8.510;2022-10-16T12:40:32;20.00;99.90
26278;DHT22;14000;52.056;8.510;2022-10-16T12:48:39;20.20;99.90
26278;DHT22;14000;52.056;8.510;2022-10-16T12:51:25;20.10;99.90
26278;DHT22;14000;52.056;8.510;2022-10-16T12:54:12;20.00;99.90
26278;DHT22;14000;52.056;8.510;2022-10-16T13:02:39;20.60;99.90
26278;DHT22;14000;52.056;8.510;2022-10-16T13:08:28;20.50;99.90
26278;DHT22;14000;52.056;8.510;2022-10-16T13:14:00;20.60;99.90
26278;DHT22;14000;52.056;8.510;2022-10-16T13:27:48;20.90;99.90
26278;DHT22;14000;52.056;8.510;2022-10-16T13:30:22;21.00;99.90
26278;DHT22;14000;52.056;8.510;2022-10-16T13:32:52;21.20;99.90
26278;DHT22;14000;52.056;8.510;2022-10-16T13:35:32;21.30;99.90
26278;DHT22;14000;52.056;8.510;2022-10-16T13:38:25;21.20;99.90
26278;DHT22;14000;52.056;8.510;2022-10-16T13:43:45;20.20;99.90
26278;DHT22;14000;52.056;8.510;2022-10-16T13:48:39;20.30;99.90
26278;DHT22;14000;52.056;8.510;2022-10-16T13:51:15;20.20;99.90
26278;DHT22;14000;52.056;8.510;2022-10-16T13:53:42;20.10;99.90
26278;DHT22;14000;52.056;8.510;2022-10-16T13:56:14;20.20;99.90
26278;DHT22;14000;52.056;8.510;2022-10-16T13:58:41;20.40;99.90
26278;DHT22;14000;52.056;8.510;2022-10-16T14:01:29;20.50;99.90
26278;DHT22;14000;52.056;8.510;2022-10-16T14:04:04;20.60;99.90
26278;DHT22;14000;52.056;8.510;2022-10-16T14:06:31;20.80;99.90
26278;DHT22;14000;52.056;8.510;2022-10-16T14:09:06;20.90;99.90
26278;DHT22;14000;52.056;8.510;2022-10-16T14:11:35;21.10;99.90
26278;DHT22;14000;52.056;8.510;2022-10-16T14:14:04;21.20;99.90
26278;DHT22;14000;52.056;8.510;2022-10-16T14:16:31;21.30;99.90
26278;DHT22;14000;52.056;8.510;2022-10-16T14:19:00;21.50;99.90
26278;DHT22;14000;52.056;8.510;2022-10-16T14:21:27;21.40;99.90
26278;DHT22;14000;52.056;8.510;2022-10-16T14:23:53;21.50;99.90
26278;DHT22;14000;52.056;8.510;2022-10-16T14:26:22;21.50;99.90
26278;DHT22;14000;52.056;8.510;2022-10-16T14:29:00;21.50;99.90
26278;DHT22;14000;52.056;8.510;2022-10-16T14:31:31;21.40;99.90
26278;DHT22;14000;52.056;8.510;2022-10-16T14:33:59;21.30;99.90
26278;DHT22;14000;52.056;8.510;2022-10-16T14:36:27;21.30;99.90
26278;DHT22;14000;52.056;8.510;2022-10-16T14:39:06;21.20;99.90
26278;DHT22;14000;52.056;8.510;2022-10-16T14:41:45;21.10;99.90
26278;DHT22;14000;52.056;8.510;2022-10-16T14:44:14;21.00;99.90
26278;DHT22;14000;52.056;8.510;2022-10-16T14:46:41;21.00;99.90
26278;DHT22;14000;52.056;8.510;2022-10-16T14:51:37;20.90;99.90
26278;DHT22;14000;52.056;8.510;2022-10-16T14:54:04;20.70;99.90
26278;DHT22;14000;52.056;8.510;2022-10-16T14:56:35;20.50;99.90
26278;DHT22;14000;52.056;8.510;2022-10-16T14:59:08;20.30;99.90
26278;DHT22;14000;52.056;8.510;2022-10-16T15:01:37;20.20;99.90
26278;DHT22;14000;52.056;8.510;2022-10-16T15:04:03;20.10;99.90
26278;DHT22;14000;52.056;8.510;2022-10-16T15:06:28;19.80;99.90
26278;DHT22;14000;52.056;8.510;2022-10-16T15:08:54;19.80;99.90
26278;DHT22;14000;52.056;8.510;2022-10-16T15:11:19;19.60;99.90
26278;DHT22;14000;52.056;8.510;2022-10-16T15:13:46;19.40;99.90
26278;DHT22;14000;52.056;8.510;2022-10-16T15:16:13;19.40;99.90
26278;DHT22;14000;52.056;8.510;2022-10-16T15:18:39;19.50;99.90
26278;DHT22;14000;52.056;8.510;2022-10-16T15:21:05;19.60;99.90
26278;DHT22;14000;52.056;8.510;2022-10-16T15:23:31;19.50;99.90
26278;DHT22;14000;52.056;8.510;2022-10-16T15:25:57;19.40;99.90
26278;DHT22;14000;52.056;8.510;2022-10-16T15:28:24;19.30;99.90
26278;DHT22;14000;52.056;8.510;2022-10-16T15:30:51;19.30;99.90
26278;DHT22;14000;52.056;8.510;2022-10-16T15:33:20;19.10;99.90
26278;DHT22;14000;52.056;8.510;2022-10-16T15:35:47;19.00;99.90
26278;DHT22;14000;52.056;8.510;2022-10-16T15:38:14;19.00;99.90
26278;DHT22;14000;52.056;8.510;2022-10-16T15:40:40;18.80;99.90
26278;DHT22;14000;52.056;8.510;2022-10-16T15:43:07;18.80;99.90
26278;DHT22;14000;52.056;8.510;2022-10-16T15:45:32;18.70;99.90
26278;DHT22;14000;52.056;8.510;2022-10-16T15:47:58;18.60;99.90
26278;DHT22;14000;52.056;8.510;2022-10-16T15:50:24;18.50;99.90
26278;DHT22;14000;52.056;8.510;2022-10-16T15:52:50;18.30;99.90
26278;DHT22;14000;52.056;8.510;2022-10-16T15:55:16;18.20;99.90
26278;DHT22;14000;52.056;8.510;2022-10-16T15:57:44;18.00;99.90
26278;DHT22;14000;52.056;8.510;2022-10-16T16:00:15;17.80;99.90
26278;DHT22;14000;52.056;8.510;2022-10-16T16:02:43;17.60;99.90
26278;DHT22;14000;52.056;8.510;2022-10-16T16:05:10;17.40;99.90
26278;DHT22;14000;52.056;8.510;2022-10-16T16:07:37;17.40;99.90
26278;DHT22;14000;52.056;8.510;2022-10-16T16:10:05;17.30;99.90
26278;DHT22;14000;52.056;8.510;2022-10-16T16:12:32;17.20;99.90
26278;DHT22;14000;52.056;8.510;2022-10-16T16:14:58;17.20;99.90
26278;DHT22;14000;52.056;8.510;2022-10-16T16:17:23;17.20;99.90
26278;DHT22;14000;52.056;8.510;2022-10-16T16:19:50;17.10;99.90
26278;DHT22;14000;52.056;8.510;2022-10-16T16:22:15;17.10;99.90
26278;DHT22;14000;52.056;8.510;2022-10-16T16:24:41;17.00;99.90
26278;DHT22;14000;52.056;8.510;2022-10-16T16:27:07;17.00;99.90
26278;DHT22;14000;52.056;8.510;2022-10-16T16:29:33;16.90;99.90
26278;DHT22;14000;52.056;8.510;2022-10-16T16:31:59;16.90;99.90
26278;DHT22;14000;52.056;8.510;2022-10-16T16:34:26;16.80;99.90
26278;DHT22;14000;52.056;8.510;2022-10-16T16:36:52;16.70;99.90
26278;DHT22;14000;52.056;8.510;2022-10-16T16:39:18;16.60;99.90
26278;DHT22;14000;52.056;8.510;2022-10-16T16:41:44;16.60;99.90
26278;DHT22;14000;52.056;8.510;2022-10-16T16:44:11;16.60;99.90
26278;DHT22;14000;52.056;8.510;2022-10-16T16:46:37;16.60;99.90
26278;DHT22;14000;52.056;8.510;2022-10-16T16:49:05;16.60;99.90
26278;DHT22;14000;52.056;8.510;2022-10-16T16:51:31;16.50;99.90
26278;DHT22;14000;52.056;8.510;2022-10-16T16:53:57;16.40;99.90
26278;DHT22;14000;52.056;8.510;2022-10-16T16:56:24;16.30;99.90
26278;DHT22;14000;52.056;8.510;2022-10-16T16:58:51;16.30;99.90
26278;DHT22;14000;52.056;8.510;2022-10-16T17:01:18;16.30;99.90
26278;DHT22;14000;52.056;8.510;2022-10-16T17:03:44;16.20;99.90
26278;DHT22;14000;52.056;8.510;2022-10-16T17:06:11;16.20;99.90
26278;DHT22;14000;52.056;8.510;2022-10-16T17:08:37;16.10;99.90
26278;DHT22;14000;52.056;8.510;2022-10-16T17:11:04;16.10;99.90
26278;DHT22;14000;52.056;8.510;2022-10-16T17:13:32;16.00;99.90
26278;DHT22;14000;52.056;8.510;2022-10-16T17:16:06;15.90;99.90
26278;DHT22;14000;52.056;8.510;2022-10-16T17:18:33;15.80;99.90
26278;DHT22;14000;52.056;8.510;2022-10-16T17:21:00;15.80;99.90
26278;DHT22;14000;52.056;8.510;2022-10-16T17:23:25;15.80;99.90
26278;DHT22;14000;52.056;8.510;2022-10-16T17:25:51;15.80;99.90
26278;DHT22;14000;52.056;8.510;2022-10-16T17:28:17;15.70;99.90
26278;DHT22;14000;52.056;8.510;2022-10-16T17:30:43;15.70;99.90
26278;DHT22;14000;52.056;8.510;2022-10-16T17:33:10;15.80;99.90
26278;DHT22;14000;52.056;8.510;2022-10-16T17:35:40;15.70;99.90
26278;DHT22;14000;52.056;8.510;2022-10-16T17:38:06;15.70;99.90